Pagrindinis puslapis
METAR-TAF:

METAR-TAF

Oro uostai :

Salinasas, Ekvadoras

platuma: 02-12-18S, ilguma: 080-59-20W, Aukštis: 5 m

Dabartinis oras

Ataskaita buvo paskelbta 3 valandos ir 39 minutes, ne 23:00 UTC
Vėjas 9 kt iš Vakarų/Pietvakarių
Temperatūra 24°C
Drėgmė 78%
Slėgis 1011 hPa
Matomumas 10 km arba daugiau
Su prošvaistėmis ne aukštis 1300 ft

METAR: SESA 162300Z 25009KT 9999 BKN013 24/20 Q1011 RMK A2989

Laikas: 21:39 (02:39 UTC)


TAF: trūkstamas

Orai ataskaitas ir orų prognozės (METAR, TAF).

turimą stotys yra geltonos ir raudonos taškus žemėlapyje.

Perkelti pele per norėdami pamatyti stoties vardą.

Tada spustelėkite, norėdami matyti oro stebėjimo ir prognozės.

Norėdami pakeisti žemėlapį: spustelėkite ant žalios mygtukų su juodo kryžiaus žemyn,; žalią mygtuką su brūkšneliu, jei norite nutolinti; arba žalių rodyklių gretimoms žemėlapius.


METAR-TAF: